Time;durP1;ratioP1;P1;durP2;ratioP2;P2;SDS_P1;SDS_P2;PMS_P1;PMS_P2;Temp;Humidity;BMP_temperature;BMP_pressure;BME280_temperature;BME280_humidity;BME280_pressure;Samples;Min_cycle;Max_cycle;Signal;HPM_P1;HPM_P2
2022/05/27 00:00:53;;;;;;;0.00;0.00;;;;;;;;;;5088025;28;20028;-65
2022/05/27 00:03:19;;;;;;;0.00;0.00;;;;;;;;;;5088248;28;20028;-65
2022/05/27 00:05:47;;;;;;;0.00;0.00;;;;;;;;;;5073139;28;20023;-65
2022/05/27 00:08:12;;;;;;;0.00;0.00;;;;;;;;;;5087283;28;20045;-64
2022/05/27 00:10:38;;;;;;;0.00;0.00;;;;;;;;;;5087666;28;20031;-64
2022/05/27 00:13:03;;;;;;;0.00;0.00;;;;;;;;;;5088159;28;20016;-64
2022/05/27 00:15:29;;;;;;;0.00;0.00;;;;;;;;;;5087473;28;20031;-64
2022/05/27 00:17:54;;;;;;;0.00;0.00;;;;;;;;;;5088233;28;20093;-64
2022/05/27 00:20:19;;;;;;;0.00;0.00;;;;;;;;;;5086683;28;20028;-63
2022/05/27 00:22:44;;;;;;;0.00;0.00;;;;;;;;;;5087898;28;20237;-63
2022/05/27 00:25:10;;;;;;;0.00;0.00;;;;;;;;;;5089133;28;20392;-63
2022/05/27 00:27:35;;;;;;;0.00;0.00;;;;;;;;;;5091816;28;20043;-64
2022/05/27 00:30:00;;;;;;;0.00;0.00;;;;;;;;;;5092004;28;20438;-64
2022/05/27 00:32:25;;;;;;;0.00;0.00;;;;;;;;;;5091421;28;20107;-64
2022/05/27 00:34:51;;;;;;;0.00;0.00;;;;;;;;;;5091061;28;20047;-63
2022/05/27 00:37:16;;;;;;;0.00;0.00;;;;;;;;;;5091855;28;20062;-63
2022/05/27 00:39:42;;;;;;;0.00;0.00;;;;;;;;;;5091261;28;20012;-63
2022/05/27 00:42:07;;;;;;;0.00;0.00;;;;;;;;;;5091933;28;20020;-63
2022/05/27 00:44:33;;;;;;;0.00;0.00;;;;;;;;;;5091391;28;20024;-66
2022/05/27 00:47:01;;;;;;;0.00;0.00;;;;;;;;;;5090072;28;20027;-66
2022/05/27 00:55:49;;;;;;;0.00;0.00;;;;;;;;;;5099415;27;20043;-66
2022/05/27 00:58:21;;;;;;;0.00;0.00;;;;;;;;;;5099575;28;20077;-66
2022/05/27 01:00:47;;;;;;;0.00;0.00;;;;;;;;;;5103854;28;20016;-66
2022/05/27 01:03:14;;;;;;;0.00;0.00;;;;;;;;;;5121089;27;20034;-66
2022/05/27 01:05:40;;;;;;;0.10;0.00;;;;;;;;;;5118810;27;20022;-66
2022/05/27 01:08:06;;;;;;;0.00;0.00;;;;;;;;;;5123912;27;20019;-66
2022/05/27 01:10:37;;;;;;;0.00;0.00;;;;;;;;;;5121564;27;20048;-66
2022/05/27 01:13:02;;;;;;;0.00;0.00;;;;;;;;;;5122909;27;20563;-65
2022/05/27 01:15:30;;;;;;;0.00;0.00;;;;;;;;;;5122593;27;20095;-65
2022/05/27 01:18:14;;;;;;;0.00;0.00;;;;;;;;;;5119473;27;20314;-66
2022/05/27 01:20:49;;;;;;;0.00;0.00;;;;;;;;;;5118905;27;20031;-67
2022/05/27 01:23:20;;;;;;;0.15;0.15;;;;;;;;;;5120810;27;20038;-66
2022/05/27 01:25:58;;;;;;;0.00;0.00;;;;;;;;;;5119233;27;20007;-66
2022/05/27 01:28:42;;;;;;;0.00;0.00;;;;;;;;;;5124626;27;20028;-65
2022/05/27 01:31:26;;;;;;;0.00;0.00;;;;;;;;;;5119129;27;20100;-65
2022/05/27 01:34:00;;;;;;;0.00;0.00;;;;;;;;;;5120106;27;20027;-65
2022/05/27 01:36:31;;;;;;;0.00;0.00;;;;;;;;;;5124704;27;20368;-64
2022/05/27 01:39:06;;;;;;;0.00;0.00;;;;;;;;;;5116184;27;20107;-65
2022/05/27 01:41:31;;;;;;;0.00;0.00;;;;;;;;;;5121922;27;20031;-64
2022/05/27 01:43:59;;;;;;;0.00;0.00;;;;;;;;;;5123814;27;20034;-64
2022/05/27 01:46:24;;;;;;;0.00;0.00;;;;;;;;;;5121635;27;20023;-65
2022/05/27 01:49:04;;;;;;;0.00;0.00;;;;;;;;;;5124175;27;20034;-65
2022/05/27 01:51:36;;;;;;;0.00;0.00;;;;;;;;;;5119233;27;20253;-65
2022/05/27 01:54:10;;;;;;;0.65;0.63;;;;;;;;;;5118189;27;20023;-65
2022/05/27 01:56:47;;;;;;;0.13;0.10;;;;;;;;;;5124455;27;20055;-65
2022/05/27 01:59:25;;;;;;;0.00;0.00;;;;;;;;;;5118165;28;20031;-65
2022/05/27 02:01:59;;;;;;;0.32;0.32;;;;;;;;;;5120391;28;20455;-64
2022/05/27 02:04:39;;;;;;;0.43;0.35;;;;;;;;;;5122489;28;20027;-67
2022/05/27 02:07:16;;;;;;;0.00;0.00;;;;;;;;;;5119045;28;20495;-67
2022/05/27 02:09:44;;;;;;;0.05;0.05;;;;;;;;;;5122630;28;20025;-67
2022/05/27 02:12:13;;;;;;;0.77;0.77;;;;;;;;;;5119546;28;20020;-67
2022/05/27 02:14:41;;;;;;;1.60;1.50;;;;;;;;;;5122980;28;20523;-67
2022/05/27 02:17:09;;;;;;;0.00;0.00;;;;;;;;;;5119389;28;20023;-67
2022/05/27 02:19:44;;;;;;;0.28;0.28;;;;;;;;;;5118213;28;20030;-67
2022/05/27 02:22:14;;;;;;;0.90;0.90;;;;;;;;;;5117745;28;20028;-65
2022/05/27 02:24:45;;;;;;;0.65;0.65;;;;;;;;;;5118050;28;20109;-66
2022/05/27 02:27:16;;;;;;;0.00;0.00;;;;;;;;;;5117169;28;20024;-66
2022/05/27 02:29:45;;;;;;;0.00;0.00;;;;;;;;;;5120833;28;20709;-65
2022/05/27 02:32:10;;;;;;;;;;;;;;;;;;5120396;28;20413;-65
2022/05/27 02:37:23;;;;;;;0.32;0.32;;;;;;;;;;5121187;28;20042;-66
2022/05/27 02:39:48;;;;;;;0.00;0.00;;;;;;;;;;5118279;28;20027;-65
2022/05/27 02:42:20;;;;;;;0.00;0.00;;;;;;;;;;5120753;28;20333;-66
2022/05/27 02:45:05;;;;;;;0.00;0.00;;;;;;;;;;5120086;28;20102;-66
2022/05/27 02:47:33;;;;;;;0.00;0.00;;;;;;;;;;5116728;27;20046;-66
2022/05/27 02:50:07;;;;;;;0.00;0.00;;;;;;;;;;5118159;28;20103;-67
2022/05/27 02:52:33;;;;;;;0.10;0.10;;;;;;;;;;5120707;28;20027;-66
2022/05/27 02:55:01;;;;;;;0.00;0.00;;;;;;;;;;5083075;27;1124244;-67
2022/05/27 02:57:38;;;;;;;0.00;0.00;;;;;;;;;;5120623;27;20031;-67
2022/05/27 03:00:06;;;;;;;0.00;0.00;;;;;;;;;;5123315;27;20027;-66
2022/05/27 03:02:31;;;;;;;0.00;0.00;;;;;;;;;;5119770;27;20023;-66
2022/05/27 03:05:00;;;;;;;0.00;0.00;;;;;;;;;;5122592;27;20038;-67
2022/05/27 03:07:34;;;;;;;0.00;0.00;;;;;;;;;;5119691;27;20026;-66
2022/05/27 03:10:29;;;;;;;0.00;0.00;;;;;;;;;;5120879;27;20060;-66
2022/05/27 03:13:10;;;;;;;0.00;0.00;;;;;;;;;;5095350;27;20048;-68
2022/05/27 03:15:50;;;;;;;0.00;0.00;;;;;;;;;;5122517;27;20016;-66
2022/05/27 03:18:34;;;;;;;0.50;0.40;;;;;;;;;;5122576;27;20360;-66
2022/05/27 03:21:16;;;;;;;0.20;0.20;;;;;;;;;;5119731;27;20103;-66
2022/05/27 03:23:49;;;;;;;0.00;0.00;;;;;;;;;;5119830;27;20027;-66
2022/05/27 03:26:23;;;;;;;0.00;0.00;;;;;;;;;;5122439;27;20022;-66
2022/05/27 03:29:09;;;;;;;0.00;0.00;;;;;;;;;;5120788;27;20019;-67
2022/05/27 03:31:39;;;;;;;0.00;0.00;;;;;;;;;;5119364;27;20023;-67
2022/05/27 03:34:09;;;;;;;0.00;0.00;;;;;;;;;;5119564;27;20073;-67
2022/05/27 03:37:10;;;;;;;0.00;0.00;;;;;;;;;;5117256;27;20042;-66
2022/05/27 03:39:42;;;;;;;0.00;0.00;;;;;;;;;;5046069;28;20066;-67
2022/05/27 03:42:10;;;;;;;0.30;0.30;;;;;;;;;;5108990;27;20429;-67
2022/05/27 03:44:36;;;;;;;0.00;0.00;;;;;;;;;;5124056;28;20410;-67
2022/05/27 03:47:01;;;;;;;0.00;0.00;;;;;;;;;;5117935;28;20068;-64
2022/05/27 03:49:27;;;;;;;0.00;0.00;;;;;;;;;;5120735;28;20452;-64
2022/05/27 03:52:06;;;;;;;0.00;0.00;;;;;;;;;;5118158;28;20115;-64
2022/05/27 03:54:32;;;;;;;0.00;0.00;;;;;;;;;;5104566;28;20077;-65
2022/05/27 03:56:57;;;;;;;0.00;0.00;;;;;;;;;;5123768;28;20515;-66
2022/05/27 03:59:23;;;;;;;0.00;0.00;;;;;;;;;;5120061;28;20104;-66
2022/05/27 04:01:50;;;;;;;0.00;0.00;;;;;;;;;;5122008;27;20034;-65
2022/05/27 04:04:16;;;;;;;0.00;0.00;;;;;;;;;;5126315;27;20023;-66
2022/05/27 04:06:42;;;;;;;0.00;0.00;;;;;;;;;;5120926;27;20034;-65
2022/05/27 04:09:07;;;;;;;0.00;0.00;;;;;;;;;;5125380;27;20094;-66
2022/05/27 04:11:33;;;;;;;0.00;0.00;;;;;;;;;;5123914;27;20501;-66
2022/05/27 04:13:59;;;;;;;0.00;0.00;;;;;;;;;;5121947;27;20027;-65
2022/05/27 04:16:24;;;;;;;0.00;0.00;;;;;;;;;;5124680;27;20375;-66
2022/05/27 04:18:49;;;;;;;0.00;0.00;;;;;;;;;;5130484;27;20027;-65
2022/05/27 04:21:14;;;;;;;0.00;0.00;;;;;;;;;;5124419;27;20413;-66
2022/05/27 04:23:40;;;;;;;0.00;0.00;;;;;;;;;;5125144;27;20463;-66
2022/05/27 04:26:05;;;;;;;0.00;0.00;;;;;;;;;;5124705;27;20034;-67
2022/05/27 04:28:31;;;;;;;0.00;0.00;;;;;;;;;;5122357;27;20037;-67
2022/05/27 04:30:56;;;;;;;0.00;0.00;;;;;;;;;;5123350;27;20095;-67
2022/05/27 04:33:21;;;;;;;0.00;0.00;;;;;;;;;;5126810;27;20099;-64
2022/05/27 04:35:47;;;;;;;0.00;0.00;;;;;;;;;;5103374;27;20027;-64
2022/05/27 04:38:12;;;;;;;0.00;0.00;;;;;;;;;;5126665;27;20019;-64
2022/05/27 04:40:37;;;;;;;0.00;0.00;;;;;;;;;;5124261;27;20019;-65
2022/05/27 04:43:02;;;;;;;0.00;0.00;;;;;;;;;;5121490;27;20395;-65
2022/05/27 04:45:28;;;;;;;0.20;0.20;;;;;;;;;;5125202;27;20023;-65
2022/05/27 04:47:53;;;;;;;0.00;0.00;;;;;;;;;;5128452;27;20019;-65
2022/05/27 04:50:19;;;;;;;0.15;0.15;;;;;;;;;;5120678;27;20020;-64
2022/05/27 04:52:44;;;;;;;0.00;0.00;;;;;;;;;;5107758;27;20027;-64
2022/05/27 04:55:11;;;;;;;0.00;0.00;;;;;;;;;;5120715;27;20411;-65
2022/05/27 04:57:41;;;;;;;0.00;0.00;;;;;;;;;;5125886;27;20023;-64
2022/05/27 05:00:09;;;;;;;0.57;0.57;;;;;;;;;;5118189;27;20403;-64
2022/05/27 05:02:34;;;;;;;0.00;0.00;;;;;;;;;;5119621;27;20059;-64
2022/05/27 05:04:59;;;;;;;0.28;0.28;;;;;;;;;;5126326;27;20058;-65
2022/05/27 05:07:25;;;;;;;0.73;0.65;;;;;;;;;;5125936;27;20019;-65
2022/05/27 05:09:50;;;;;;;0.00;0.00;;;;;;;;;;5121172;27;20027;-65
2022/05/27 05:12:22;;;;;;;0.17;0.17;;;;;;;;;;5125767;27;20043;-65
2022/05/27 05:14:47;;;;;;;0.00;0.00;;;;;;;;;;5119200;27;20356;-66
2022/05/27 05:17:12;;;;;;;0.00;0.00;;;;;;;;;;5121189;27;20048;-65
2022/05/27 05:19:38;;;;;;;0.00;0.00;;;;;;;;;;5120450;27;20026;-65
2022/05/27 05:22:04;;;;;;;0.15;0.15;;;;;;;;;;5120938;27;20011;-66
2022/05/27 05:24:29;;;;;;;0.35;0.35;;;;;;;;;;5106567;27;20022;-66
2022/05/27 05:26:54;;;;;;;0.00;0.00;;;;;;;;;;5121683;27;20375;-67
2022/05/27 05:29:19;;;;;;;0.00;0.00;;;;;;;;;;5125913;27;20038;-67
2022/05/27 05:31:45;;;;;;;0.00;0.00;;;;;;;;;;5121371;27;20034;-68
2022/05/27 05:34:10;;;;;;;0.25;0.25;;;;;;;;;;5119338;27;20024;-67
2022/05/27 05:36:35;;;;;;;0.43;0.10;;;;;;;;;;5122818;27;20038;-66
2022/05/27 05:39:01;;;;;;;0.00;0.00;;;;;;;;;;5122924;27;20035;-66
2022/05/27 05:41:36;;;;;;;0.00;0.00;;;;;;;;;;5122545;27;20019;-65
2022/05/27 05:44:02;;;;;;;0.10;0.10;;;;;;;;;;5126079;27;20062;-66
2022/05/27 05:46:28;;;;;;;0.28;0.28;;;;;;;;;;5120726;27;20049;-65
2022/05/27 05:48:53;;;;;;;1.27;0.32;;;;;;;;;;5119862;27;20027;-64
2022/05/27 05:51:19;;;;;;;1.10;1.10;;;;;;;;;;5121967;27;20125;-65
2022/05/27 05:53:45;;;;;;;0.45;0.45;;;;;;;;;;5122419;27;20068;-65
2022/05/27 05:56:10;;;;;;;0.00;0.00;;;;;;;;;;5119037;27;20357;-64
2022/05/27 05:58:36;;;;;;;0.05;0.05;;;;;;;;;;5121591;27;20111;-64
2022/05/27 06:01:01;;;;;;;0.00;0.00;;;;;;;;;;5118946;27;20095;-66
2022/05/27 06:03:26;;;;;;;1.05;0.57;;;;;;;;;;5120139;27;20028;-66
2022/05/27 06:05:52;;;;;;;0.00;0.00;;;;;;;;;;5122748;27;20457;-65
2022/05/27 06:08:18;;;;;;;0.20;0.00;;;;;;;;;;5119619;27;20019;-65
2022/05/27 06:10:44;;;;;;;0.00;0.00;;;;;;;;;;5119360;27;20045;-65
2022/05/27 06:13:09;;;;;;;0.00;0.00;;;;;;;;;;5117238;27;20023;-65
2022/05/27 06:15:34;;;;;;;0.00;0.00;;;;;;;;;;5123227;27;20023;-65
2022/05/27 06:18:00;;;;;;;0.00;0.00;;;;;;;;;;5115126;27;20345;-66
2022/05/27 06:20:26;;;;;;;0.00;0.00;;;;;;;;;;5124632;27;20375;-65
2022/05/27 06:22:51;;;;;;;0.00;0.00;;;;;;;;;;5116850;27;20024;-66
2022/05/27 06:25:16;;;;;;;0.00;0.00;;;;;;;;;;5123754;27;20015;-65
2022/05/27 06:27:41;;;;;;;0.13;0.13;;;;;;;;;;5119529;27;20032;-65
2022/05/27 06:35:35;;;;;;;0.00;0.00;;;;;;;;;;5118115;27;20023;-66
2022/05/27 06:38:00;;;;;;;0.00;0.00;;;;;;;;;;5124231;27;20023;-66
2022/05/27 06:40:25;;;;;;;0.00;0.00;;;;;;;;;;5120267;27;20055;-66
2022/05/27 06:42:50;;;;;;;0.20;0.20;;;;;;;;;;5119519;27;20023;-65
2022/05/27 06:45:16;;;;;;;0.03;0.03;;;;;;;;;;5123106;27;20030;-66
2022/05/27 06:47:41;;;;;;;0.85;0.47;;;;;;;;;;5122500;27;20034;-65
2022/05/27 06:50:07;;;;;;;0.00;0.00;;;;;;;;;;5118421;27;20019;-66
2022/05/27 06:52:33;;;;;;;0.00;0.00;;;;;;;;;;5120006;27;20020;-66
2022/05/27 06:54:58;;;;;;;0.20;0.20;;;;;;;;;;5118249;27;20678;-67
2022/05/27 06:57:23;;;;;;;0.00;0.00;;;;;;;;;;5123302;27;20031;-67
2022/05/27 06:59:49;;;;;;;12.25;2.42;;;;;;;;;;5120184;27;20464;-67
2022/05/27 07:02:14;;;;;;;0.00;0.00;;;;;;;;;;5118877;27;20039;-68
2022/05/27 07:04:39;;;;;;;1.25;0.20;;;;;;;;;;5118655;27;20024;-68
2022/05/27 07:07:04;;;;;;;0.15;0.15;;;;;;;;;;5120768;27;20850;-67
2022/05/27 07:09:35;;;;;;;0.00;0.00;;;;;;;;;;5121253;27;20033;-68
2022/05/27 07:12:01;;;;;;;0.00;0.00;;;;;;;;;;5123680;27;20490;-67
2022/05/27 07:14:26;;;;;;;0.00;0.00;;;;;;;;;;5117879;27;20019;-66
2022/05/27 07:16:51;;;;;;;0.00;0.00;;;;;;;;;;5121135;27;20034;-67
2022/05/27 07:19:19;;;;;;;0.00;0.00;;;;;;;;;;5118261;27;20024;-67
2022/05/27 07:21:45;;;;;;;0.00;0.00;;;;;;;;;;5105404;27;20464;-67
2022/05/27 07:24:13;;;;;;;0.00;0.00;;;;;;;;;;5116822;27;20028;-67
2022/05/27 07:26:39;;;;;;;0.17;0.17;;;;;;;;;;5124231;27;20074;-67
2022/05/27 07:29:05;;;;;;;0.45;0.45;;;;;;;;;;5120044;27;20872;-67
2022/05/27 07:31:31;;;;;;;0.00;0.00;;;;;;;;;;5102751;27;20027;-67
2022/05/27 07:33:56;;;;;;;0.00;0.00;;;;;;;;;;5120256;27;20411;-63
2022/05/27 07:36:22;;;;;;;2.50;0.85;;;;;;;;;;5118426;27;20024;-65
2022/05/27 07:38:51;;;;;;;0.00;0.00;;;;;;;;;;5119123;27;20031;-65
2022/05/27 07:41:16;;;;;;;0.03;0.03;;;;;;;;;;5117302;27;20033;-67
2022/05/27 07:43:42;;;;;;;0.00;0.00;;;;;;;;;;5116807;27;20107;-66
2022/05/27 07:46:07;;;;;;;0.00;0.00;;;;;;;;;;5117081;28;20015;-67
2022/05/27 07:48:32;;;;;;;0.00;0.00;;;;;;;;;;5121685;28;20027;-67
2022/05/27 07:50:57;;;;;;;0.00;0.00;;;;;;;;;;5121286;28;20531;-64
2022/05/27 07:53:23;;;;;;;0.00;0.00;;;;;;;;;;5120589;28;20122;-65
2022/05/27 07:55:48;;;;;;;0.00;0.00;;;;;;;;;;5121287;28;20039;-64
2022/05/27 07:58:14;;;;;;;0.00;0.00;;;;;;;;;;5122060;28;20058;-65
2022/05/27 08:00:39;;;;;;;0.00;0.00;;;;;;;;;;5123661;28;20030;-64
2022/05/27 08:03:05;;;;;;;0.00;0.00;;;;;;;;;;5120355;28;20023;-64
2022/05/27 08:05:32;;;;;;;0.00;0.00;;;;;;;;;;5118857;28;20023;-64
2022/05/27 08:07:58;;;;;;;0.00;0.00;;;;;;;;;;5118000;28;20037;-63
2022/05/27 08:10:25;;;;;;;0.00;0.00;;;;;;;;;;5127752;28;20023;-65
2022/05/27 08:12:50;;;;;;;0.00;0.00;;;;;;;;;;5119017;28;20111;-64
2022/05/27 08:15:16;;;;;;;0.00;0.00;;;;;;;;;;5121839;28;20057;-64
2022/05/27 08:17:41;;;;;;;0.10;0.10;;;;;;;;;;5121847;28;20034;-65
2022/05/27 08:20:08;;;;;;;0.00;0.00;;;;;;;;;;5117196;28;20027;-64
2022/05/27 08:22:39;;;;;;;0.00;0.00;;;;;;;;;;5117641;28;20023;-64
2022/05/27 08:25:05;;;;;;;0.00;0.00;;;;;;;;;;5110864;28;20020;-64
2022/05/27 08:27:42;;;;;;;0.00;0.00;;;;;;;;;;5118892;28;20016;-64
2022/05/27 08:30:11;;;;;;;0.00;0.00;;;;;;;;;;5119866;28;20131;-64
2022/05/27 08:32:37;;;;;;;0.00;0.00;;;;;;;;;;5115429;28;20096;-64
2022/05/27 08:38:01;;;;;;;0.00;0.00;;;;;;;;;;5119416;28;20143;-64
2022/05/27 08:41:14;;;;;;;0.00;0.00;;;;;;;;;;5116431;28;20016;-65
2022/05/27 08:43:53;;;;;;;0.20;0.20;;;;;;;;;;5116923;28;20040;-64
2022/05/27 08:46:27;;;;;;;0.00;0.00;;;;;;;;;;5116023;27;20104;-65
2022/05/27 08:48:56;;;;;;;4.43;0.20;;;;;;;;;;5122067;27;20697;-65
2022/05/27 08:51:45;;;;;;;0.00;0.00;;;;;;;;;;5124143;27;20410;-65
2022/05/27 08:54:10;;;;;;;;;;;;;;;;;;5092837;27;20031;-64
2022/05/27 08:59:27;;;;;;;4.30;4.07;;;;;;;;;;5121609;27;20031;-64
2022/05/27 09:02:05;;;;;;;0.03;0.03;;;;;;;;;;5124052;27;20019;-64
2022/05/27 09:04:35;;;;;;;0.20;0.10;;;;;;;;;;5121566;27;20034;-64
2022/05/27 09:07:12;;;;;;;0.00;0.00;;;;;;;;;;5117907;27;20057;-64
2022/05/27 09:09:38;;;;;;;0.00;0.00;;;;;;;;;;5122108;27;20019;-65
2022/05/27 09:12:22;;;;;;;0.00;0.00;;;;;;;;;;5121920;27;20035;-65
2022/05/27 09:15:03;;;;;;;0.00;0.00;;;;;;;;;;5119682;27;20114;-64
2022/05/27 09:17:40;;;;;;;0.00;0.00;;;;;;;;;;5121068;27;20106;-66
2022/05/27 09:20:12;;;;;;;0.00;0.00;;;;;;;;;;5123194;27;20482;-64
2022/05/27 09:22:40;;;;;;;0.00;0.00;;;;;;;;;;5123531;27;20555;-65
2022/05/27 09:25:05;;;;;;;0.00;0.00;;;;;;;;;;5122618;27;20019;-65
2022/05/27 09:27:42;;;;;;;0.00;0.00;;;;;;;;;;5120001;27;20028;-65
2022/05/27 09:30:08;;;;;;;0.00;0.00;;;;;;;;;;5124310;27;20135;-65
2022/05/27 09:32:44;;;;;;;0.00;0.00;;;;;;;;;;5120641;27;20421;-65
2022/05/27 09:35:11;;;;;;;0.00;0.00;;;;;;;;;;5120343;27;20475;-64
2022/05/27 09:37:39;;;;;;;0.00;0.00;;;;;;;;;;5115769;27;20016;-65
2022/05/27 09:40:12;;;;;;;0.00;0.00;;;;;;;;;;5122581;27;20022;-65
2022/05/27 09:42:40;;;;;;;0.00;0.00;;;;;;;;;;5118787;27;20127;-65
2022/05/27 09:45:06;;;;;;;0.00;0.00;;;;;;;;;;5117090;27;20701;-65
2022/05/27 09:47:32;;;;;;;0.00;0.00;;;;;;;;;;5119279;27;20016;-66
2022/05/27 09:49:59;;;;;;;0.00;0.00;;;;;;;;;;5120735;27;20019;-65
2022/05/27 09:52:24;;;;;;;0.00;0.00;;;;;;;;;;5121616;27;20535;-65
2022/05/27 09:54:51;;;;;;;0.00;0.00;;;;;;;;;;5124585;27;20122;-65
2022/05/27 09:57:22;;;;;;;0.00;0.00;;;;;;;;;;5120566;27;20011;-64
2022/05/27 09:59:53;;;;;;;0.00;0.00;;;;;;;;;;5113758;27;20023;-65
2022/05/27 10:02:21;;;;;;;0.00;0.00;;;;;;;;;;5121862;27;20153;-65
2022/05/27 10:04:49;;;;;;;0.00;0.00;;;;;;;;;;5126078;27;20478;-65
2022/05/27 10:07:22;;;;;;;0.03;0.03;;;;;;;;;;5119984;27;20467;-65
2022/05/27 10:09:47;;;;;;;0.00;0.00;;;;;;;;;;5123822;27;20015;-65
2022/05/27 10:12:26;;;;;;;0.00;0.00;;;;;;;;;;5119679;27;20665;-66
2022/05/27 10:14:51;;;;;;;0.00;0.00;;;;;;;;;;5119900;27;20376;-65
2022/05/27 10:17:27;;;;;;;0.00;0.00;;;;;;;;;;5120528;27;20261;-65
2022/05/27 10:19:52;;;;;;;0.28;0.28;;;;;;;;;;5124004;27;20673;-65
2022/05/27 10:22:22;;;;;;;0.00;0.00;;;;;;;;;;5122894;27;20019;-65
2022/05/27 10:24:55;;;;;;;0.00;0.00;;;;;;;;;;5121330;27;20805;-65
2022/05/27 10:27:21;;;;;;;0.00;0.00;;;;;;;;;;5121050;27;20015;-65
2022/05/27 10:29:53;;;;;;;0.22;0.22;;;;;;;;;;5123167;27;20019;-65
2022/05/27 10:32:40;;;;;;;0.45;0.32;;;;;;;;;;5119242;27;20099;-64
2022/05/27 10:35:07;;;;;;;0.00;0.00;;;;;;;;;;5114397;27;20042;-64
2022/05/27 10:37:33;;;;;;;0.00;0.00;;;;;;;;;;5123863;27;20019;-65
2022/05/27 10:40:21;;;;;;;0.00;0.00;;;;;;;;;;5118692;27;20028;-65
2022/05/27 10:42:49;;;;;;;0.00;0.00;;;;;;;;;;5107861;27;20071;-66
2022/05/27 10:45:23;;;;;;;0.00;0.00;;;;;;;;;;5118413;27;20068;-65
2022/05/27 10:48:07;;;;;;;0.00;0.00;;;;;;;;;;5118183;27;20035;-65
2022/05/27 10:50:50;;;;;;;0.80;0.80;;;;;;;;;;5124449;27;20374;-65
2022/05/27 10:53:18;;;;;;;0.10;0.10;;;;;;;;;;5119184;27;20099;-65
2022/05/27 10:55:55;;;;;;;0.00;0.00;;;;;;;;;;5123630;27;20095;-65
2022/05/27 11:04:34;;;;;;;0.00;0.00;;;;;;;;;;5122085;27;20064;-65
2022/05/27 11:07:17;;;;;;;1.25;0.20;;;;;;;;;;5117445;27;20476;-64
2022/05/27 11:09:58;;;;;;;0.55;0.30;;;;;;;;;;5121030;27;20065;-65
2022/05/27 11:15:10;;;;;;;0.00;0.00;;;;;;;;;;5119678;27;20428;-65
2022/05/27 11:15:28;;;;;;;0.00;0.00;;;;;;;;;;5119021;27;20023;-65
2022/05/27 11:18:12;;;;;;;0.10;0.10;;;;;;;;;;5117565;27;20030;-64
2022/05/27 11:20:56;;;;;;;0.00;0.00;;;;;;;;;;5122462;27;20059;-64
2022/05/27 11:23:30;;;;;;;0.10;0.10;;;;;;;;;;5122120;27;20025;-64
2022/05/27 11:26:14;;;;;;;0.00;0.00;;;;;;;;;;5119458;27;20103;-64
2022/05/27 11:28:42;;;;;;;0.00;0.00;;;;;;;;;;5119459;27;20053;-65
2022/05/27 11:31:07;;;;;;;1.02;0.10;;;;;;;;;;5121190;27;20015;-64
2022/05/27 11:33:44;;;;;;;0.00;0.00;;;;;;;;;;5119735;27;20368;-65
2022/05/27 11:36:28;;;;;;;0.00;0.00;;;;;;;;;;5118004;27;20250;-65
2022/05/27 11:38:59;;;;;;;0.00;0.00;;;;;;;;;;5116822;27;20508;-65
2022/05/27 11:41:30;;;;;;;0.00;0.00;;;;;;;;;;5117767;27;20515;-64
2022/05/27 11:44:02;;;;;;;0.00;0.00;;;;;;;;;;5117356;27;20099;-64
2022/05/27 11:46:40;;;;;;;0.00;0.00;;;;;;;;;;5118422;27;20015;-64
2022/05/27 11:49:22;;;;;;;0.00;0.00;;;;;;;;;;5117935;28;20076;-64
2022/05/27 11:51:47;;;;;;;0.00;0.00;;;;;;;;;;5120573;28;20065;-64
2022/05/27 11:54:30;;;;;;;0.00;0.00;;;;;;;;;;5118897;28;20027;-65
2022/05/27 11:56:58;;;;;;;0.00;0.00;;;;;;;;;;5114730;28;20338;-65
2022/05/27 11:59:24;;;;;;;20.02;11.25;;;;;;;;;;5120951;28;20050;-63
2022/05/27 12:01:49;;;;;;;0.00;0.00;;;;;;;;;;5112297;28;20023;-65
2022/05/27 12:04:14;;;;;;;0.10;0.10;;;;;;;;;;5115892;28;20024;-64
2022/05/27 12:06:52;;;;;;;0.03;0.03;;;;;;;;;;5118828;28;20257;-64
2022/05/27 12:09:27;;;;;;;0.00;0.00;;;;;;;;;;5117212;28;20582;-64
2022/05/27 12:11:55;;;;;;;0.00;0.00;;;;;;;;;;5118812;28;20018;-64
2022/05/27 12:14:29;;;;;;;0.00;0.00;;;;;;;;;;5120561;28;20029;-64
2022/05/27 12:16:55;;;;;;;0.20;0.20;;;;;;;;;;5116087;28;20615;-62
2022/05/27 12:19:24;;;;;;;0.20;0.20;;;;;;;;;;5118194;28;20114;-64
2022/05/27 12:22:06;;;;;;;0.00;0.00;;;;;;;;;;5120070;27;20067;-64
2022/05/27 12:24:36;;;;;;;0.10;0.10;;;;;;;;;;5121830;27;20364;-64
2022/05/27 12:27:02;;;;;;;0.00;0.00;;;;;;;;;;5123348;27;20068;-64
2022/05/27 12:29:28;;;;;;;0.00;0.00;;;;;;;;;;5124168;27;20019;-64
2022/05/27 12:31:54;;;;;;;0.45;0.45;;;;;;;;;;5123902;27;20023;-64
2022/05/27 12:34:26;;;;;;;0.15;0.15;;;;;;;;;;5123455;27;20487;-64
2022/05/27 12:36:51;;;;;;;0.05;0.05;;;;;;;;;;5120909;27;20018;-64
2022/05/27 12:39:23;;;;;;;0.00;0.00;;;;;;;;;;5121510;27;20476;-64
2022/05/27 12:41:48;;;;;;;0.52;0.52;;;;;;;;;;5124007;27;20076;-64
2022/05/27 12:44:19;;;;;;;0.20;0.20;;;;;;;;;;5122869;27;20027;-64
2022/05/27 12:46:45;;;;;;;0.03;0.03;;;;;;;;;;5123016;27;20084;-64
2022/05/27 12:49:21;;;;;;;0.00;0.00;;;;;;;;;;5119806;27;20050;-64
2022/05/27 12:51:46;;;;;;;0.47;0.47;;;;;;;;;;5126133;27;20016;-64
2022/05/27 12:54:31;;;;;;;0.30;0.30;;;;;;;;;;5122255;27;20407;-63
2022/05/27 13:02:58;;;;;;;0.20;0.20;;;;;;;;;;5123877;27;20147;-62
2022/05/27 13:05:44;;;;;;;0.10;0.10;;;;;;;;;;5122558;27;20057;-61
2022/05/27 13:08:17;;;;;;;0.00;0.00;;;;;;;;;;5116963;27;20019;-62
2022/05/27 13:10:44;;;;;;;0.10;0.10;;;;;;;;;;5123245;27;20071;-62
2022/05/27 13:13:12;;;;;;;0.00;0.00;;;;;;;;;;5122854;27;20035;-63
2022/05/27 13:15:53;;;;;;;1.80;0.65;;;;;;;;;;5122120;27;20068;-65
2022/05/27 13:18:30;;;;;;;0.08;0.05;;;;;;;;;;5121549;27;20150;-65
2022/05/27 13:21:53;;;;;;;0.00;0.00;;;;;;;;;;5124357;27;20021;-66
2022/05/27 13:24:12;;;;;;;8.60;0.80;;;;;;;;;;5117206;27;20095;-64
2022/05/27 13:26:38;;;;;;;2.38;1.35;;;;;;;;;;5123863;27;20043;-65
2022/05/27 13:29:14;;;;;;;0.05;0.05;;;;;;;;;;5121707;27;20062;-65
2022/05/27 13:31:41;;;;;;;1.13;0.82;;;;;;;;;;5121486;27;20028;-67
2022/05/27 13:34:08;;;;;;;0.32;0.32;;;;;;;;;;5117518;27;20023;-65
2022/05/27 13:36:37;;;;;;;0.03;0.03;;;;;;;;;;5121443;27;20542;-65
2022/05/27 13:39:05;;;;;;;0.00;0.00;;;;;;;;;;5119916;27;20053;-65
2022/05/27 13:41:35;;;;;;;3.80;0.60;;;;;;;;;;5122058;27;20049;-64
2022/05/27 13:44:00;;;;;;;0.00;0.00;;;;;;;;;;5121073;27;20020;-65
2022/05/27 13:46:28;;;;;;;5.63;0.40;;;;;;;;;;5120240;27;20478;-64
2022/05/27 13:48:58;;;;;;;0.50;0.50;;;;;;;;;;5120841;27;20107;-65
2022/05/27 13:51:25;;;;;;;0.00;0.00;;;;;;;;;;5122537;27;20069;-65
2022/05/27 13:53:51;;;;;;;0.00;0.00;;;;;;;;;;5120878;27;20026;-66
2022/05/27 13:56:26;;;;;;;0.15;0.15;;;;;;;;;;5102004;27;20053;-66
2022/05/27 13:59:00;;;;;;;0.00;0.00;;;;;;;;;;5121023;27;20031;-66
2022/05/27 14:01:49;;;;;;;2.30;0.15;;;;;;;;;;5121052;27;20054;-65
2022/05/27 14:04:23;;;;;;;0.03;0.03;;;;;;;;;;5112674;27;20484;-65
2022/05/27 14:06:49;;;;;;;1.67;1.35;;;;;;;;;;5122385;27;20699;-66
2022/05/27 14:09:17;;;;;;;0.00;0.00;;;;;;;;;;5118903;27;20103;-64
2022/05/27 14:11:44;;;;;;;0.00;0.00;;;;;;;;;;5117386;27;20019;-64
2022/05/27 14:14:10;;;;;;;0.77;0.77;;;;;;;;;;5102851;27;20352;-63
2022/05/27 14:16:41;;;;;;;0.52;0.52;;;;;;;;;;5120173;27;20098;-63
2022/05/27 14:19:10;;;;;;;0.68;0.50;;;;;;;;;;5119589;27;20039;-64
2022/05/27 14:24:26;;;;;;;0.47;0.47;;;;;;;;;;5117689;27;20049;-64
2022/05/27 14:26:51;;;;;;;0.65;0.65;;;;;;;;;;5118678;27;20023;-64
2022/05/27 14:29:19;;;;;;;1.13;1.13;;;;;;;;;;5122805;27;20024;-63
2022/05/27 14:31:44;;;;;;;0.00;0.00;;;;;;;;;;5119645;27;20033;-64
2022/05/27 14:34:11;;;;;;;0.00;0.00;;;;;;;;;;5117882;27;20015;-63
2022/05/27 14:36:51;;;;;;;0.08;0.08;;;;;;;;;;5115903;27;20090;-64
2022/05/27 14:39:17;;;;;;;0.65;0.65;;;;;;;;;;5123657;27;20026;-64
2022/05/27 14:41:43;;;;;;;0.10;0.10;;;;;;;;;;5118384;27;20099;-65
2022/05/27 14:44:19;;;;;;;0.40;0.10;;;;;;;;;;5115883;27;20031;-65
2022/05/27 14:47:00;;;;;;;0.00;0.00;;;;;;;;;;5123603;27;20444;-66
2022/05/27 14:49:29;;;;;;;0.10;0.10;;;;;;;;;;5119101;27;20023;-65
2022/05/27 14:51:54;;;;;;;;;;;;;;;;;;5117923;27;20455;-65
2022/05/27 14:54:22;;;;;;;0.93;0.93;;;;;;;;;;5126731;27;19949;-66
2022/05/27 14:56:49;;;;;;;0.17;0.17;;;;;;;;;;5116338;27;20285;-65
2022/05/27 14:59:16;;;;;;;0.03;0.03;;;;;;;;;;5120805;27;20031;-65
2022/05/27 15:01:42;;;;;;;0.00;0.00;;;;;;;;;;5123713;27;20030;-66
2022/05/27 15:04:12;;;;;;;0.88;0.88;;;;;;;;;;5117932;27;20479;-65
2022/05/27 15:06:38;;;;;;;0.35;0.35;;;;;;;;;;5117381;27;20023;-66
2022/05/27 15:09:24;;;;;;;0.10;0.10;;;;;;;;;;5115909;27;20023;-65
2022/05/27 15:11:50;;;;;;;0.13;0.13;;;;;;;;;;5119577;27;20024;-65
2022/05/27 15:14:23;;;;;;;0.30;0.30;;;;;;;;;;5118217;27;20035;-65
2022/05/27 15:16:53;;;;;;;0.00;0.00;;;;;;;;;;5115600;27;20034;-65
2022/05/27 15:19:19;;;;;;;0.00;0.00;;;;;;;;;;5122499;27;20484;-65
2022/05/27 15:21:49;;;;;;;0.10;0.10;;;;;;;;;;5127741;27;20027;-66
2022/05/27 15:24:22;;;;;;;0.28;0.28;;;;;;;;;;5113608;27;20064;-66
2022/05/27 15:35:09;;;;;;;0.00;0.00;;;;;;;;;;5116004;27;20072;-65
2022/05/27 15:37:35;;;;;;;0.88;0.17;;;;;;;;;;5121508;27;20019;-67
2022/05/27 15:40:00;;;;;;;0.00;0.00;;;;;;;;;;5117039;27;20049;-64
2022/05/27 15:42:26;;;;;;;0.00;0.00;;;;;;;;;;5122962;27;20031;-65